createdAt,value
2019-04-16T00:01:35.003Z,99.90
2019-04-16T00:04:38.452Z,99.90
2019-04-16T00:07:25.502Z,99.90
2019-04-16T00:10:02.056Z,99.90
2019-04-16T00:12:54.247Z,99.90
2019-04-16T00:15:23.596Z,99.90
2019-04-16T00:17:53.011Z,99.90
2019-04-16T00:20:22.651Z,99.90
2019-04-16T00:22:58.208Z,99.90
2019-04-16T00:25:27.878Z,99.90
2019-04-16T00:27:59.507Z,99.90
2019-04-16T00:30:28.328Z,99.90
2019-04-16T00:32:57.753Z,99.90
2019-04-16T00:35:27.350Z,99.90
2019-04-16T00:37:56.687Z,99.90
2019-04-16T00:40:27.193Z,99.90
2019-04-16T00:42:56.780Z,99.90
2019-04-16T00:45:26.107Z,99.90
2019-04-16T00:47:55.813Z,99.90
2019-04-16T00:50:25.146Z,99.90
2019-04-16T00:52:54.611Z,99.90
2019-04-16T00:55:23.976Z,99.90
2019-04-16T00:57:53.491Z,99.90
2019-04-16T01:00:23.172Z,99.90
2019-04-16T01:02:52.660Z,99.90
2019-04-16T01:05:21.975Z,99.90
2019-04-16T01:07:51.710Z,99.90
2019-04-16T01:10:21.184Z,99.90
2019-04-16T01:12:50.614Z,99.90
2019-04-16T01:15:19.950Z,99.90
2019-04-16T01:17:49.651Z,99.90
2019-04-16T01:20:19.026Z,99.90
2019-04-16T01:22:48.423Z,99.90
2019-04-16T01:25:20.349Z,99.90
2019-04-16T01:27:53.664Z,99.90
2019-04-16T01:30:36.476Z,99.90
2019-04-16T01:33:28.447Z,99.90
2019-04-16T01:36:14.896Z,99.90
2019-04-16T01:39:07.616Z,99.90
2019-04-16T01:41:25.315Z,99.90
2019-04-16T01:43:57.095Z,99.90
2019-04-16T01:46:25.793Z,99.90
2019-04-16T01:48:55.264Z,99.90
2019-04-16T01:51:24.687Z,99.90
2019-04-16T01:53:54.308Z,99.90
2019-04-16T01:56:27.945Z,99.90
2019-04-16T01:58:54.932Z,99.90
2019-04-16T02:01:24.296Z,99.90
2019-04-16T02:03:53.679Z,99.90
2019-04-16T02:06:25.707Z,99.90
2019-04-16T02:08:54.419Z,99.90
2019-04-16T02:11:23.923Z,99.90
2019-04-16T02:13:53.299Z,99.90
2019-04-16T02:16:25.204Z,99.90
2019-04-16T02:18:53.829Z,99.90
2019-04-16T02:21:23.187Z,99.90
2019-04-16T02:23:52.914Z,99.90
2019-04-16T02:26:23.555Z,99.90
2019-04-16T02:28:53.482Z,99.90
2019-04-16T02:31:22.973Z,99.90
2019-04-16T02:33:52.432Z,99.90
2019-04-16T02:36:21.908Z,99.90
2019-04-16T02:38:53.437Z,99.90
2019-04-16T02:41:24.427Z,99.90
2019-04-16T02:43:53.780Z,99.90
2019-04-16T02:46:23.293Z,99.90
2019-04-16T02:48:52.665Z,99.90
2019-04-16T02:51:39.883Z,99.90
2019-04-16T02:54:19.671Z,99.90
2019-04-16T02:57:07.317Z,99.90
2019-04-16T02:59:45.733Z,99.90
2019-04-16T03:02:26.363Z,99.90
2019-04-16T03:05:10.321Z,99.90
2019-04-16T03:07:39.934Z,99.90
2019-04-16T03:10:13.271Z,99.90
2019-04-16T03:12:40.809Z,99.90
2019-04-16T03:15:10.741Z,99.90
2019-04-16T03:17:43.887Z,99.90
2019-04-16T03:20:14.658Z,99.90
2019-04-16T03:22:44.122Z,99.90
2019-04-16T03:25:14.369Z,99.90
2019-04-16T03:27:44.552Z,99.90
2019-04-16T03:30:14.078Z,99.90
2019-04-16T03:32:50.624Z,99.90
2019-04-16T03:35:25.511Z,99.90
2019-04-16T03:37:51.508Z,99.90
2019-04-16T03:40:24.725Z,99.90
2019-04-16T03:42:52.114Z,99.90
2019-04-16T03:45:21.820Z,99.90
2019-04-16T03:47:52.195Z,99.90
2019-04-16T03:50:22.178Z,99.90
2019-04-16T03:52:51.569Z,99.90
2019-04-16T03:55:25.006Z,99.90
2019-04-16T03:57:52.166Z,99.90
2019-04-16T04:00:21.722Z,99.90
2019-04-16T04:02:54.106Z,99.90
2019-04-16T04:05:22.554Z,99.90
2019-04-16T04:07:55.076Z,99.90
2019-04-16T04:10:30.322Z,99.90
2019-04-16T04:12:54.397Z,99.90
2019-04-16T04:15:26.384Z,99.90
2019-04-16T04:17:54.986Z,99.90
2019-04-16T04:20:24.398Z,99.90
2019-04-16T04:22:56.748Z,99.90
2019-04-16T04:25:25.515Z,99.90
2019-04-16T04:27:54.915Z,99.90
2019-04-16T04:30:25.696Z,99.90
2019-04-16T04:32:56.282Z,99.90
2019-04-16T04:35:25.667Z,99.90
2019-04-16T04:37:55.110Z,99.90
2019-04-16T04:40:25.155Z,99.90
2019-04-16T04:42:54.525Z,99.90
2019-04-16T04:45:24.203Z,99.90
2019-04-16T04:47:53.774Z,99.90
2019-04-16T04:50:23.207Z,99.90
2019-04-16T04:52:52.923Z,99.90
2019-04-16T04:55:23.423Z,99.90
2019-04-16T04:57:53.496Z,99.90
2019-04-16T05:00:22.872Z,99.90
2019-04-16T05:02:52.280Z,99.90
2019-04-16T05:05:26.831Z,99.90
2019-04-16T05:07:59.776Z,99.90
2019-04-16T05:10:27.352Z,99.90
2019-04-16T05:12:57.087Z,99.90
2019-04-16T05:15:29.385Z,99.90
2019-04-16T05:17:57.950Z,99.90
2019-04-16T05:20:29.814Z,99.90
2019-04-16T05:22:58.509Z,99.90
2019-04-16T05:25:33.191Z,99.90
2019-04-16T05:27:59.078Z,99.90
2019-04-16T05:30:28.548Z,99.90
2019-04-16T05:32:58.528Z,99.90
2019-04-16T05:35:28.049Z,99.90
2019-04-16T05:37:57.412Z,99.90
2019-04-16T05:40:28.058Z,99.90
2019-04-16T05:42:58.910Z,99.90
2019-04-16T05:45:29.411Z,99.90
2019-04-16T05:47:59.117Z,99.90
2019-04-16T05:50:29.852Z,99.90
2019-04-16T05:52:59.462Z,99.90
2019-04-16T05:55:44.299Z,99.90
2019-04-16T05:58:13.738Z,99.90
2019-04-16T06:01:13.699Z,99.90
2019-04-16T06:03:42.490Z,99.90
2019-04-16T06:06:12.200Z,99.90
2019-04-16T06:08:41.830Z,99.90
2019-04-16T06:11:11.915Z,99.90
2019-04-16T06:13:55.473Z,99.90
2019-04-16T06:16:36.616Z,99.90
2019-04-16T06:19:27.874Z,99.90
2019-04-16T06:22:31.433Z,99.90
2019-04-16T06:25:18.633Z,99.90
2019-04-16T06:28:02.702Z,99.90
2019-04-16T06:30:45.928Z,99.90
2019-04-16T06:33:37.749Z,99.90
2019-04-16T06:36:21.521Z,99.90
2019-04-16T06:39:13.204Z,99.90
2019-04-16T06:42:03.411Z,99.90
2019-04-16T06:44:34.981Z,99.90
2019-04-16T06:47:23.187Z,99.90
2019-04-16T06:50:06.804Z,99.90
2019-04-16T06:53:01.388Z,99.90
2019-04-16T06:55:36.285Z,99.90
2019-04-16T06:58:49.863Z,99.90
2019-04-16T07:01:25.363Z,99.90
2019-04-16T07:04:00.454Z,99.90
2019-04-16T07:07:01.098Z,99.90
2019-04-16T07:09:57.099Z,99.90
2019-04-16T07:12:30.198Z,99.90
2019-04-16T07:14:59.624Z,99.90
2019-04-16T07:17:33.761Z,99.90
2019-04-16T07:20:00.669Z,99.90
2019-04-16T07:22:30.074Z,99.90
2019-04-16T07:25:03.867Z,99.90
2019-04-16T07:27:52.734Z,99.90
2019-04-16T07:30:41.687Z,99.90
2019-04-16T07:33:18.869Z,99.90
2019-04-16T07:35:56.160Z,99.90
2019-04-16T07:38:44.754Z,99.90
2019-04-16T07:41:32.519Z,99.90
2019-04-16T07:44:10.197Z,99.90
2019-04-16T07:46:58.369Z,99.90
2019-04-16T07:49:39.158Z,99.90
2019-04-16T07:52:26.482Z,99.90
2019-04-16T07:55:15.284Z,99.90
2019-04-16T07:57:44.848Z,99.90
2019-04-16T08:00:15.225Z,99.90
2019-04-16T08:02:45.260Z,99.90
2019-04-16T08:05:14.654Z,99.90
2019-04-16T08:07:44.151Z,99.90
2019-04-16T08:10:16.784Z,99.90
2019-04-16T08:12:50.601Z,99.90
2019-04-16T08:15:20.310Z,99.90
2019-04-16T08:17:49.816Z,99.90
2019-04-16T08:20:21.024Z,99.90
2019-04-16T08:22:52.513Z,99.90
2019-04-16T08:25:33.519Z,99.90
2019-04-16T08:28:00.911Z,99.90
2019-04-16T08:30:34.462Z,99.90
2019-04-16T08:33:01.690Z,99.90
2019-04-16T08:35:31.219Z,99.90
2019-04-16T08:38:00.829Z,99.90
2019-04-16T08:40:30.319Z,99.90
2019-04-16T08:42:59.737Z,99.90
2019-04-16T08:45:29.447Z,99.90
2019-04-16T08:47:58.907Z,99.90
2019-04-16T08:50:28.835Z,99.90
2019-04-16T08:52:58.552Z,99.90
2019-04-16T08:55:28.259Z,99.90
2019-04-16T08:57:57.676Z,99.90
2019-04-16T09:00:27.104Z,99.90
2019-04-16T09:02:58.692Z,99.90
2019-04-16T09:05:27.688Z,99.90
2019-04-16T09:08:12.210Z,99.90
2019-04-16T09:10:34.604Z,99.90
2019-04-16T09:13:06.586Z,99.90
2019-04-16T09:15:36.629Z,99.90
2019-04-16T09:18:33.995Z,99.90
2019-04-16T09:21:06.927Z,99.90
2019-04-16T09:23:35.070Z,99.90
2019-04-16T09:26:23.801Z,99.90
2019-04-16T09:29:25.258Z,99.90
2019-04-16T09:32:16.733Z,99.90
2019-04-16T09:35:08.841Z,99.90
2019-04-16T09:37:53.718Z,99.90
2019-04-16T09:40:41.104Z,99.90
2019-04-16T09:43:17.562Z,99.90
2019-04-16T09:45:44.426Z,99.90
2019-04-16T09:48:14.007Z,99.90
2019-04-16T09:50:47.572Z,99.90
2019-04-16T09:53:14.573Z,99.90
2019-04-16T09:55:44.244Z,99.90
2019-04-16T09:58:21.615Z,99.90
2019-04-16T10:01:07.554Z,99.90
2019-04-16T10:03:39.165Z,99.90
2019-04-16T10:06:08.684Z,99.90
2019-04-16T10:08:38.091Z,99.40
2019-04-16T10:11:07.687Z,97.50
2019-04-16T10:13:37.392Z,98.10
2019-04-16T10:16:07.341Z,98.20
2019-04-16T10:18:37.011Z,99.50
2019-04-16T10:21:06.458Z,97.70
2019-04-16T10:23:45.021Z,93.40
2019-04-16T10:26:14.997Z,93.00
2019-04-16T10:28:44.703Z,91.40
2019-04-16T10:31:16.457Z,91.60
2019-04-16T10:33:46.014Z,93.20
2019-04-16T10:36:15.540Z,79.40
2019-04-16T10:39:12.571Z,78.60
2019-04-16T10:41:49.480Z,75.10
2019-04-16T10:44:50.208Z,71.60
2019-04-16T10:47:41.499Z,90.00
2019-04-16T10:50:19.024Z,82.50
2019-04-16T10:53:07.489Z,83.80
2019-04-16T10:55:49.363Z,78.30
2019-04-16T10:59:01.881Z,75.30
2019-04-16T11:01:35.928Z,82.50
2019-04-16T11:04:13.957Z,85.90
2019-04-16T11:06:45.841Z,86.10
2019-04-16T11:09:15.603Z,89.10
2019-04-16T11:11:45.560Z,93.30
2019-04-16T11:14:15.084Z,97.30
2019-04-16T11:16:47.044Z,98.50
2019-04-16T11:19:16.517Z,98.60
2019-04-16T11:21:45.940Z,99.80
2019-04-16T11:24:15.967Z,99.90
2019-04-16T11:26:45.829Z,99.90
2019-04-16T11:29:15.532Z,99.90
2019-04-16T11:31:45.310Z,99.90
2019-04-16T11:34:15.227Z,99.90
2019-04-16T11:36:44.970Z,99.90
2019-04-16T11:39:14.946Z,99.90
2019-04-16T11:41:45.089Z,99.90
2019-04-16T11:44:16.799Z,99.90
2019-04-16T11:46:45.699Z,99.90
2019-04-16T11:49:15.331Z,99.90
2019-04-16T11:51:45.106Z,99.90
2019-04-16T11:54:14.604Z,99.90
2019-04-16T11:56:46.015Z,99.90
2019-04-16T11:59:15.831Z,99.90
2019-04-16T12:02:04.674Z,99.90
2019-04-16T12:04:55.927Z,99.90
2019-04-16T12:07:34.668Z,99.90
2019-04-16T12:10:23.187Z,99.90
2019-04-16T12:13:10.227Z,99.90
2019-04-16T12:16:05.243Z,99.90
2019-04-16T12:18:59.570Z,99.90
2019-04-16T12:21:44.001Z,99.90
2019-04-16T12:24:35.133Z,99.90
2019-04-16T12:27:13.452Z,99.90
2019-04-16T12:29:54.603Z,99.90
2019-04-16T12:32:31.987Z,99.90
2019-04-16T12:35:31.052Z,99.90
2019-04-16T12:38:29.228Z,99.90
2019-04-16T12:41:16.632Z,99.90
2019-04-16T12:44:05.257Z,99.90
2019-04-16T12:46:49.346Z,99.90
2019-04-16T12:49:36.686Z,99.90
2019-04-16T12:52:28.209Z,99.90
2019-04-16T12:55:34.978Z,99.90
2019-04-16T12:58:08.189Z,99.90
2019-04-16T13:00:48.671Z,99.90
2019-04-16T13:03:40.071Z,99.90
2019-04-16T13:06:27.158Z,99.90
2019-04-16T13:09:23.312Z,99.90
2019-04-16T13:12:10.061Z,99.90
2019-04-16T13:15:11.820Z,99.90
2019-04-16T13:18:06.082Z,99.90
2019-04-16T13:20:57.060Z,99.90
2019-04-16T13:23:49.775Z,99.90
2019-04-16T13:26:25.447Z,99.90
2019-04-16T13:28:56.166Z,99.90
2019-04-16T13:31:25.812Z,99.90
2019-04-16T13:33:55.758Z,99.90
2019-04-16T13:36:27.828Z,99.90
2019-04-16T13:39:15.627Z,99.90
2019-04-16T13:41:45.132Z,99.90
2019-04-16T13:44:17.294Z,99.90
2019-04-16T13:46:52.272Z,99.90
2019-04-16T13:49:40.763Z,99.90
2019-04-16T13:52:10.248Z,99.90
2019-04-16T13:55:09.677Z,99.90
2019-04-16T13:57:39.982Z,99.90
2019-04-16T14:00:29.401Z,99.90
2019-04-16T14:03:02.749Z,99.90
2019-04-16T14:05:37.439Z,99.90
2019-04-16T14:08:03.965Z,99.90
2019-04-16T14:10:33.462Z,99.90
2019-04-16T14:13:03.064Z,99.90
2019-04-16T14:15:38.997Z,99.90
2019-04-16T14:18:06.188Z,99.90
2019-04-16T14:20:35.625Z,99.90
2019-04-16T14:23:05.513Z,99.90
2019-04-16T14:25:35.056Z,99.90
2019-04-16T14:28:04.511Z,99.90
2019-04-16T14:30:39.620Z,99.90
2019-04-16T14:33:09.214Z,99.90
2019-04-16T14:35:40.631Z,99.90
2019-04-16T14:38:11.537Z,99.90
2019-04-16T14:40:42.335Z,99.90
2019-04-16T14:43:14.113Z,99.90
2019-04-16T14:45:58.187Z,99.90
2019-04-16T14:48:20.454Z,99.90
2019-04-16T14:50:49.982Z,99.90
2019-04-16T14:53:37.256Z,99.90
2019-04-16T14:56:14.815Z,99.90
2019-04-16T14:59:09.017Z,99.90
2019-04-16T15:02:00.268Z,99.90
2019-04-16T15:04:37.081Z,99.40
2019-04-16T15:07:39.234Z,99.90
2019-04-16T15:10:21.063Z,99.90
2019-04-16T15:13:12.559Z,98.70
2019-04-16T15:16:08.239Z,96.50
2019-04-16T15:18:51.992Z,95.30
2019-04-16T15:21:43.062Z,98.30
2019-04-16T15:24:18.840Z,99.90
2019-04-16T15:27:10.453Z,99.90
2019-04-16T15:29:57.853Z,99.90
2019-04-16T15:32:49.304Z,99.90
2019-04-16T15:35:23.692Z,99.90
2019-04-16T15:38:11.097Z,99.90
2019-04-16T15:40:41.617Z,99.90
2019-04-16T15:43:31.725Z,99.90
2019-04-16T15:46:25.984Z,99.90
2019-04-16T15:49:14.690Z,99.90
2019-04-16T15:51:56.282Z,99.90
2019-04-16T15:55:03.347Z,99.90
2019-04-16T15:57:39.420Z,99.90
2019-04-16T16:00:25.498Z,99.90
2019-04-16T16:03:13.063Z,99.90
2019-04-16T16:05:46.491Z,99.90
2019-04-16T16:08:35.815Z,99.90
2019-04-16T16:11:10.248Z,99.90
2019-04-16T16:13:39.668Z,99.90
2019-04-16T16:16:10.753Z,99.90
2019-04-16T16:18:40.707Z,99.90
2019-04-16T16:21:10.331Z,99.90
2019-04-16T16:23:40.020Z,99.90
2019-04-16T16:26:09.788Z,99.90
2019-04-16T16:28:39.635Z,99.90
2019-04-16T16:31:09.113Z,99.90
2019-04-16T16:33:38.661Z,99.90
2019-04-16T16:36:08.684Z,99.90
2019-04-16T16:38:38.282Z,99.90
2019-04-16T16:41:08.195Z,99.90
2019-04-16T16:43:38.010Z,99.90
2019-04-16T16:46:25.759Z,99.90
2019-04-16T16:48:55.834Z,99.90
2019-04-16T16:51:25.667Z,99.90
2019-04-16T16:54:04.911Z,99.90
2019-04-16T16:56:54.150Z,99.90
2019-04-16T16:59:42.507Z,99.90
2019-04-16T17:02:40.132Z,99.90
2019-04-16T17:05:15.285Z,99.90
2019-04-16T17:07:44.846Z,99.90
2019-04-16T17:10:14.491Z,99.90
2019-04-16T17:12:44.115Z,99.90
2019-04-16T17:15:13.946Z,99.90
2019-04-16T17:17:43.621Z,99.90
2019-04-16T17:20:13.707Z,99.90
2019-04-16T17:22:43.142Z,99.90
2019-04-16T17:25:13.083Z,99.90
2019-04-16T17:27:51.230Z,99.90
2019-04-16T17:30:14.982Z,99.90
2019-04-16T17:32:44.671Z,99.90
2019-04-16T17:35:15.939Z,99.90
2019-04-16T17:37:46.151Z,99.90
2019-04-16T17:40:21.456Z,99.90
2019-04-16T17:42:53.476Z,99.90
2019-04-16T17:45:45.509Z,99.90
2019-04-16T17:48:26.737Z,99.90
2019-04-16T17:51:08.091Z,99.90
2019-04-16T17:53:49.001Z,99.90
2019-04-16T17:56:40.499Z,99.90
2019-04-16T17:59:14.195Z,99.90
2019-04-16T18:02:11.876Z,99.90
2019-04-16T18:05:05.143Z,99.90
2019-04-16T18:08:06.393Z,99.90
2019-04-16T18:10:48.978Z,99.90
2019-04-16T18:13:29.245Z,99.90
2019-04-16T18:16:05.305Z,99.90
2019-04-16T18:19:06.845Z,99.90
2019-04-16T18:21:43.920Z,99.90
2019-04-16T18:24:25.219Z,99.90
2019-04-16T18:27:14.200Z,99.90
2019-04-16T18:30:07.067Z,99.90
2019-04-16T18:32:54.861Z,99.90
2019-04-16T18:35:38.729Z,99.90
2019-04-16T18:38:28.051Z,99.90
2019-04-16T18:41:15.635Z,99.90
2019-04-16T18:44:03.183Z,99.90
2019-04-16T18:46:57.820Z,99.90
2019-04-16T18:49:28.601Z,99.90
2019-04-16T18:51:58.812Z,99.90
2019-04-16T18:54:28.826Z,99.90
2019-04-16T18:56:59.170Z,99.90
2019-04-16T18:59:29.127Z,99.90
2019-04-16T19:02:02.945Z,99.90
2019-04-16T19:04:32.896Z,99.90
2019-04-16T19:07:03.283Z,99.90
2019-04-16T19:09:33.269Z,99.90
2019-04-16T19:12:03.716Z,99.90
2019-04-16T19:14:36.554Z,99.90
2019-04-16T19:17:06.335Z,99.90
2019-04-16T19:19:36.717Z,99.90
2019-04-16T19:22:07.364Z,99.90
2019-04-16T19:24:37.305Z,99.90
2019-04-16T19:27:07.557Z,99.90
2019-04-16T19:29:37.600Z,99.90
2019-04-16T19:32:07.527Z,99.90
2019-04-16T19:34:40.947Z,99.90
2019-04-16T19:37:09.077Z,99.90
2019-04-16T19:39:39.159Z,99.90
2019-04-16T19:42:11.253Z,99.90
2019-04-16T19:44:40.698Z,99.90
2019-04-16T19:47:10.567Z,99.90
2019-04-16T19:49:40.530Z,99.90
2019-04-16T19:52:10.655Z,99.90
2019-04-16T19:54:41.163Z,99.90
2019-04-16T19:57:12.242Z,99.90
2019-04-16T19:59:46.370Z,99.90
2019-04-16T20:02:13.961Z,99.90
2019-04-16T20:04:44.439Z,99.90
2019-04-16T20:07:15.489Z,99.90
2019-04-16T20:09:45.594Z,99.90
2019-04-16T20:12:15.713Z,99.90
2019-04-16T20:14:45.362Z,99.90
2019-04-16T20:17:15.215Z,99.90
2019-04-16T20:20:00.894Z,99.90
2019-04-16T20:22:32.179Z,99.90
2019-04-16T20:25:02.195Z,99.90
2019-04-16T20:27:32.109Z,99.90
2019-04-16T20:30:02.182Z,99.90
2019-04-16T20:32:34.398Z,99.90
2019-04-16T20:35:03.825Z,99.90
2019-04-16T20:37:34.088Z,99.90
2019-04-16T20:40:04.005Z,99.90
2019-04-16T20:42:34.112Z,99.90
2019-04-16T20:45:03.873Z,99.90
2019-04-16T20:47:38.825Z,99.90
2019-04-16T20:50:06.211Z,99.90
2019-04-16T20:52:36.169Z,99.90
2019-04-16T20:55:07.032Z,99.90
2019-04-16T20:57:39.134Z,99.90
2019-04-16T21:00:11.036Z,99.90
2019-04-16T21:02:40.849Z,99.90
2019-04-16T21:05:21.956Z,99.90
2019-04-16T21:07:43.985Z,99.90
2019-04-16T21:10:12.908Z,99.90
2019-04-16T21:12:45.311Z,99.90
2019-04-16T21:15:14.000Z,99.90
2019-04-16T21:17:43.613Z,99.90
2019-04-16T21:20:13.389Z,99.90
2019-04-16T21:22:42.961Z,99.90
2019-04-16T21:25:13.897Z,99.90
2019-04-16T21:27:59.778Z,99.90
2019-04-16T21:30:29.210Z,99.90
2019-04-16T21:33:06.710Z,99.90
2019-04-16T21:35:39.182Z,99.90
2019-04-16T21:38:27.787Z,99.90
2019-04-16T21:40:57.789Z,99.90
2019-04-16T21:43:27.357Z,99.90
2019-04-16T21:45:57.064Z,99.90
2019-04-16T21:48:27.700Z,99.90
2019-04-16T21:50:57.319Z,99.90
2019-04-16T21:53:27.843Z,99.90
2019-04-16T21:55:58.357Z,99.90
2019-04-16T21:58:27.814Z,99.90
2019-04-16T22:01:22.569Z,99.90
2019-04-16T22:04:02.548Z,99.90
2019-04-16T22:06:32.105Z,99.90
2019-04-16T22:09:03.564Z,99.90
2019-04-16T22:11:32.783Z,99.90
2019-04-16T22:14:02.286Z,99.90
2019-04-16T22:16:31.998Z,99.90
2019-04-16T22:19:01.493Z,99.90
2019-04-16T22:21:30.879Z,99.90
2019-04-16T22:24:00.376Z,99.90
2019-04-16T22:26:34.272Z,99.90
2019-04-16T22:29:01.338Z,99.90
2019-04-16T22:31:30.990Z,99.90
2019-04-16T22:34:00.640Z,99.90
2019-04-16T22:36:30.141Z,99.90
2019-04-16T22:39:05.680Z,99.90
2019-04-16T22:41:50.896Z,99.90
2019-04-16T22:44:51.440Z,99.90
2019-04-16T22:47:25.655Z,99.90
2019-04-16T22:50:12.855Z,99.90
2019-04-16T22:52:26.871Z,99.90
2019-04-16T22:54:56.457Z,99.90
2019-04-16T22:57:26.236Z,99.90
2019-04-16T22:59:55.612Z,99.90
2019-04-16T23:02:27.660Z,99.90
2019-04-16T23:04:58.502Z,99.90
2019-04-16T23:07:28.431Z,99.90
2019-04-16T23:09:58.322Z,99.90
2019-04-16T23:12:28.347Z,99.90
2019-04-16T23:14:57.865Z,99.90
2019-04-16T23:17:27.294Z,99.90
2019-04-16T23:19:57.140Z,99.90
2019-04-16T23:22:26.693Z,99.90
2019-04-16T23:24:56.448Z,99.90
2019-04-16T23:27:27.059Z,99.90
2019-04-16T23:29:56.590Z,99.90
2019-04-16T23:32:28.692Z,99.90
2019-04-16T23:34:57.359Z,99.90
2019-04-16T23:37:27.680Z,99.90
2019-04-16T23:39:57.335Z,99.90
2019-04-16T23:42:27.387Z,99.90
2019-04-16T23:45:31.128Z,99.90
2019-04-16T23:48:06.651Z,99.90
2019-04-16T23:50:45.135Z,99.90
2019-04-16T23:53:33.966Z,99.90
2019-04-16T23:56:20.670Z,99.90
2019-04-16T23:59:05.193Z,99.90
